logo
Search for airport 
image banner adimage banner adimage banner ad
image banner ad

YBUG - Bulga Downs Station Airport

Located in Sandstone, Australia

ICAO - YBUG, IATA -

Data provided by Airmate  

General information

Coordinates: S28°29'22" E119°44'49"
Elevation is 1438 feet MSL.
Magnetic variation is 1° East
View others Airports in (unassigned)

Operational data

Special qualification required
Current time UTC:
Current local time:
Weather at : - ( 0 km )
METAR: KMMU 191448Z 18006KT 10SM OVC025 12/05 A3015
View NOTAMs / SUP AIP / TFR affecting this airport [VIEW]
Communications frequencies: [VIEW]

Runways:

RWY identifierQFULength (ft)Width (ft)SurfaceLDA (ft)
35351°400564DIRT
17171°400564DIRT
26263°263657DIRT
0883°263657DIRT

Airport contact information

Address: Sandstone Australia

Satellite view of YBUG